Markesan, WI (53946)

7:08 AM CDT on September 01, 2015 (GMT -0500)
Brooks Southside addition | | Change Station
CLOSE
Current Station
Personal Weather Station
Location: Green Lake, WI
Elevation: 823 ft
Nearby Weather Stations

Elev 823 ft 43.84 °N, 88.95 °W | Updated 8 minutes ago

Partly Cloudy
Partly Cloudy
68.1 °F
Feels Like 68.1 °F
N
0.0
Wind Variable Wind from WNW
Gusts 0.0 mph

Today
High -- | Low -- °F
--% Chance of Precip.
Yesterday
High -- | Low -- °F
Precip. -- in
6:19 AM 7:31 PM
Waning Gibbous, 89% visible
Pressure 30.04 in
Visibility 1.8 miles
Clouds Mostly Cloudy 5500 ft
Mostly Cloudy 6500 ft
Dew Point 68 °F
Humidity 98%
Rainfall 0.00 in
Snow Depth Not available.
UV 0 out of 12
Pollen 10.80 out of 12
Air Quality Not available.
Flu Activity Not available.
METAR KUNU 011155Z AUTO 13003KT 1 3/4SM BR BKN055 BKN065 19/19 A3004 RMK AO2 P0001 60003 70006 T01900187 10193 20182
Pressure 30.04 in
Visibility 1.8 miles
Clouds Mostly Cloudy 5500 ft
Mostly Cloudy 6500 ft
Dew Point 68 °F
Humidity 98%
Rainfall 0.00 in
Snow Depth Not available.
UV 0 out of 12
Pollen 10.80 out of 12
Air Quality Not available.
Flu Activity Not available.
METAR KUNU 011155Z AUTO 13003KT 1 3/4SM BR BKN055 BKN065 19/19 A3004 RMK AO2 P0001 60003 70006 T01900187 10193 20182
Nowcast | as of 5:08 am CDT on September 1, 2015

Clear skies...light winds and a humid air mass have lead to fog development across southern Wisconsin early this morning. Some of the heaviest fog is occurring near and along Lake Michigan...and also out in the Countryside where cool air drains into the usual low spots. Visibilities in some areas will be reduced to 1/4 mile or less. Look for visibilities to improve quickly after sunrise.

×

10-Day Weather Forecast

×

Almanac

Astronomy

Sep. 01, 2015 Rise Set
Actual Time
Civil Twilight
Nautical Twilight
Astronomical Twilight
Moon
Length of Visible Light
Length of Day
Tomorrow will be .
, % of the Moon is Illuminated

Today's Extremes

State Highs State Lows

Community

WunderPhotos

Upload Photos

1,851,508 photos uploaded!

WunderBlogs® & News

Nearby

Air Quality

  Air Quality AQ Index Pollutant
Not available.

Snow Depth

Station Depth Elevation

Earthquake Activity

City Distance Mag. Time & Date
Minimum magnitude displayed is 2.5.

Coastal Water Temperatures

Place Temperature

Stations

Nearby Weather Stations

Station Location Temp. Windchill Dew Point Humidity Wind Precip. Elev Updated Type